Time;durP1;ratioP1;P1;durP2;ratioP2;P2;SDS_P1;SDS_P2;PMS_P1;PMS_P2;Temp;Humidity;BMP_temperature;BMP_pressure;BME280_temperature;BME280_humidity;BME280_pressure;Samples;Min_cycle;Max_cycle;Signal;HPM_P1;HPM_P2
2021/12/04 00:01:12;;;;;;;64.55;5.47;;;4.40;99.90;;;;;;5074242;28;20515;-68
2021/12/04 00:03:39;;;;;;;41.72;4.80;;;4.40;99.90;;;;;;5075648;28;20029;-68
2021/12/04 00:06:14;;;;;;;37.83;4.22;;;4.40;99.90;;;;;;5075707;28;20046;-68
2021/12/04 00:08:44;;;;;;;52.13;5.80;;;4.30;99.90;;;;;;5074362;28;20027;-67
2021/12/04 00:11:09;;;;;;;44.47;3.85;;;4.20;99.90;;;;;;5074652;28;20523;-68
2021/12/04 00:13:35;;;;;;;52.83;4.80;;;4.10;99.90;;;;;;5075683;28;20032;-68
2021/12/04 00:16:00;;;;;;;64.28;5.22;;;3.90;99.90;;;;;;5075403;28;20033;-68
2021/12/04 00:18:26;;;;;;;49.65;5.85;;;3.90;99.90;;;;;;5075394;28;20028;-68
2021/12/04 00:20:52;;;;;;;39.97;5.38;;;3.80;99.90;;;;;;5075560;28;20024;-68
2021/12/04 00:23:17;;;;;;;35.78;4.72;;;3.70;99.90;;;;;;5094136;28;20032;-68
2021/12/04 00:25:43;;;;;;;38.15;5.03;;;3.50;99.90;;;;;;5095495;28;20095;-67
2021/12/04 00:28:09;;;;;;;44.65;3.22;;;3.50;99.90;;;;;;5095449;28;20386;-67
2021/12/04 00:30:35;;;;;;;38.33;4.15;;;3.40;99.90;;;;;;5095376;28;20064;-67
2021/12/04 00:33:04;;;;;;;24.63;3.33;;;3.30;99.90;;;;;;5095263;28;20035;-67
2021/12/04 00:43:18;;;;;;;61.70;3.38;;;3.20;99.90;;;;;;5095224;28;20020;-67
2021/12/04 00:49:10;;;;;;;43.53;4.03;;;3.00;99.90;;;;;;5095085;28;20197;-67
2021/12/04 00:51:42;;;;;;;23.00;2.72;;;2.90;99.90;;;;;;5095188;28;20028;-68
2021/12/04 00:54:10;;;;;;;31.35;3.85;;;2.90;99.90;;;;;;5095230;28;20024;-67
2021/12/04 00:56:37;;;;;;;24.17;4.03;;;2.90;99.90;;;;;;5095039;28;20107;-68
2021/12/04 00:59:04;;;;;;;32.13;3.15;;;2.90;99.90;;;;;;5094848;28;20032;-67
2021/12/04 01:01:29;;;;;;;42.10;3.33;;;2.90;99.90;;;;;;5094916;28;20023;-68
2021/12/04 01:03:55;;;;;;;21.63;3.00;;;2.80;99.90;;;;;;5095167;28;20502;-67
2021/12/04 01:06:21;;;;;;;18.48;2.83;;;2.80;99.90;;;;;;5094700;28;20095;-67
2021/12/04 01:08:46;;;;;;;29.05;3.28;;;2.80;99.90;;;;;;5094901;28;20020;-67
2021/12/04 01:11:12;;;;;;;37.10;3.63;;;2.70;99.90;;;;;;5095530;28;20081;-67
2021/12/04 01:13:38;;;;;;;43.13;3.42;;;2.70;99.90;;;;;;5094518;28;20399;-68
2021/12/04 01:16:04;;;;;;;30.73;3.33;;;2.60;99.90;;;;;;5094489;28;20032;-67
2021/12/04 01:18:30;;;;;;;33.65;2.58;;;2.60;99.90;;;;;;5094470;28;20028;-67
2021/12/04 01:20:57;;;;;;;33.95;3.50;;;2.60;99.90;;;;;;5094330;28;20031;-67
2021/12/04 01:23:22;;;;;;;40.70;3.63;;;2.60;99.90;;;;;;5094160;28;20055;-68
2021/12/04 01:25:48;;;;;;;25.98;3.08;;;2.60;99.90;;;;;;5094304;28;20067;-67
2021/12/04 01:28:14;;;;;;;38.08;3.25;;;2.60;99.90;;;;;;5094539;28;20028;-67
2021/12/04 01:30:39;;;;;;;24.73;2.80;;;2.70;99.90;;;;;;5076086;28;20028;-67
2021/12/04 01:33:05;;;;;;;25.95;2.85;;;2.70;99.90;;;;;;5094120;28;20024;-67
2021/12/04 01:35:31;;;;;;;45.40;3.42;;;2.60;99.90;;;;;;5094388;28;20035;-67
2021/12/04 01:37:56;;;;;;;26.77;2.78;;;2.60;99.90;;;;;;5094076;28;20479;-67
2021/12/04 01:40:22;;;;;;;28.02;3.55;;;2.50;99.90;;;;;;5094510;28;20031;-67
2021/12/04 01:42:48;;;;;;;29.48;3.40;;;2.50;99.90;;;;;;5093936;28;20479;-67
2021/12/04 01:45:17;;;;;;;42.55;4.35;;;2.50;99.90;;;;;;5094200;28;20016;-67
2021/12/04 01:47:43;;;;;;;41.13;3.88;;;2.60;99.90;;;;;;5093869;28;20035;-67
2021/12/04 01:50:09;;;;;;;21.27;3.60;;;2.60;99.90;;;;;;5094161;28;20020;-68
2021/12/04 01:52:34;;;;;;;28.83;3.00;;;2.50;99.90;;;;;;5093773;28;20106;-67
2021/12/04 01:55:00;;;;;;;38.83;4.10;;;2.50;99.90;;;;;;5093776;28;20067;-67
2021/12/04 01:57:26;;;;;;;39.13;3.65;;;2.40;99.90;;;;;;5094022;28;20048;-67
2021/12/04 01:59:52;;;;;;;34.53;5.28;;;2.30;99.90;;;;;;5093687;28;20107;-67
2021/12/04 02:02:18;;;;;;;30.75;3.30;;;2.10;99.90;;;;;;5093519;28;20480;-67
2021/12/04 02:04:44;;;;;;;37.70;4.43;;;2.00;99.90;;;;;;5094177;28;20076;-67
2021/12/04 02:07:11;;;;;;;43.92;4.55;;;2.10;99.90;;;;;;5093888;28;20157;-67
2021/12/04 02:09:38;;;;;;;32.58;5.43;;;2.10;99.90;;;;;;5093841;28;20020;-68
2021/12/04 02:12:06;;;;;;;34.92;5.40;;;2.30;99.90;;;;;;5093919;28;20117;-67
2021/12/04 02:14:33;;;;;;;54.05;8.18;;;2.20;99.90;;;;;;5093801;28;20024;-67
2021/12/04 02:16:59;;;;;;;42.08;4.80;;;2.20;99.90;;;;;;5093972;28;20206;-67
2021/12/04 02:19:24;;;;;;;56.25;6.07;;;2.30;99.90;;;;;;5093457;28;20133;-67
2021/12/04 02:21:50;;;;;;;40.08;5.15;;;2.40;99.90;;;;;;5093074;28;20039;-67
2021/12/04 02:24:16;;;;;;;30.55;5.43;;;2.30;99.90;;;;;;5093352;28;20099;-67
2021/12/04 02:26:42;;;;;;;49.70;5.55;;;2.30;99.90;;;;;;5093369;28;20506;-67
2021/12/04 02:29:07;;;;;;;39.55;4.90;;;2.30;99.90;;;;;;5093324;28;20111;-67
2021/12/04 02:31:33;;;;;;;35.53;4.60;;;2.20;99.90;;;;;;5093217;28;20073;-67
2021/12/04 02:33:59;;;;;;;32.53;4.13;;;2.30;99.90;;;;;;5092845;28;20392;-67
2021/12/04 02:36:25;;;;;;;42.45;4.30;;;2.20;99.90;;;;;;5093506;28;20035;-67
2021/12/04 02:38:51;;;;;;;42.17;5.20;;;2.10;99.90;;;;;;5093272;28;20196;-67
2021/12/04 02:41:19;;;;;;;41.33;3.83;;;2.10;99.90;;;;;;5093096;28;20510;-68
2021/12/04 02:43:45;;;;;;;40.78;3.95;;;2.20;99.90;;;;;;5093480;28;20051;-67
2021/12/04 02:46:11;;;;;;;38.20;4.13;;;2.30;99.90;;;;;;5093198;28;20566;-68
2021/12/04 02:48:37;;;;;;;34.63;4.20;;;2.30;99.90;;;;;;5093118;28;20103;-67
2021/12/04 02:51:03;;;;;;;32.97;4.30;;;2.40;99.90;;;;;;5074930;28;20066;-67
2021/12/04 02:53:28;;;;;;;30.90;3.83;;;2.30;99.90;;;;;;5093386;28;20031;-68
2021/12/04 02:55:54;;;;;;;32.60;3.17;;;2.40;99.90;;;;;;5093264;28;20429;-67
2021/12/04 02:58:21;;;;;;;42.63;4.85;;;2.40;99.90;;;;;;5093049;28;20047;-67
2021/12/04 03:00:48;;;;;;;43.47;4.43;;;2.50;99.90;;;;;;5093252;28;20495;-67
2021/12/04 03:03:17;;;;;;;49.50;5.55;;;2.50;99.90;;;;;;5093480;28;20024;-68
2021/12/04 03:05:45;;;;;;;40.22;4.50;;;2.60;99.90;;;;;;5074903;28;20020;-68
2021/12/04 03:08:11;;;;;;;48.33;7.28;;;2.70;99.90;;;;;;5092962;28;20019;-68
2021/12/04 03:10:36;;;;;;;47.13;10.00;;;2.80;99.90;;;;;;5092947;28;20024;-67
2021/12/04 03:13:06;;;;;;;54.42;13.07;;;3.00;99.90;;;;;;5093418;28;20038;-67
2021/12/04 03:15:32;;;;;;;63.05;15.55;;;3.10;99.90;;;;;;5093401;28;20040;-67
2021/12/04 03:17:58;;;;;;;66.47;18.23;;;3.30;99.90;;;;;;5093121;28;20383;-67
2021/12/04 03:20:24;;;;;;;75.95;19.73;;;3.40;99.90;;;;;;5093339;28;20025;-67
2021/12/04 03:22:51;;;;;;;83.20;23.27;;;3.40;99.90;;;;;;5092685;28;20024;-67
2021/12/04 03:25:19;;;;;;;110.57;23.67;;;3.50;99.90;;;;;;5092840;28;20016;-67
2021/12/04 03:27:48;;;;;;;99.10;26.88;;;3.60;99.90;;;;;;5092803;28;20016;-67
2021/12/04 03:41:05;;;;;;;222.55;47.63;;;4.00;99.90;;;;;;5092675;28;20043;-67
2021/12/04 03:43:31;;;;;;;181.93;44.50;;;4.00;99.90;;;;;;5092928;28;20115;-68
2021/12/04 03:46:01;;;;;;;245.95;51.97;;;4.10;99.90;;;;;;5092803;28;20063;-67
2021/12/04 03:50:53;;;;;;;225.52;53.67;;;4.40;99.90;;;;;;5096425;28;20028;-67
2021/12/04 03:53:19;;;;;;;228.38;55.70;;;4.40;99.90;;;;;;5096050;28;20024;-67
2021/12/04 03:55:45;;;;;;;265.90;57.13;;;4.60;99.90;;;;;;5096050;28;20035;-67
2021/12/04 03:58:10;;;;;;;256.08;62.00;;;4.70;99.90;;;;;;5096432;28;20103;-68
2021/12/04 04:00:36;;;;;;;267.13;59.75;;;4.70;99.90;;;;;;5095943;28;20032;-67
2021/12/04 04:03:01;;;;;;;275.40;61.35;;;4.70;99.90;;;;;;5096117;28;20111;-67
2021/12/04 04:05:27;;;;;;;256.25;61.65;;;4.70;99.90;;;;;;5095885;28;20032;-68
2021/12/04 04:07:53;;;;;;;268.27;64.20;;;4.80;99.90;;;;;;5095881;28;20020;-68
2021/12/04 04:10:20;;;;;;;308.52;66.47;;;4.90;99.90;;;;;;5095775;28;20491;-67
2021/12/04 04:12:47;;;;;;;279.73;65.18;;;4.90;99.90;;;;;;5095647;28;20024;-68
2021/12/04 04:15:13;;;;;;;285.20;65.13;;;5.00;99.90;;;;;;5095647;28;20035;-68
2021/12/04 04:17:44;;;;;;;294.02;69.28;;;5.00;99.90;;;;;;5095630;28;20024;-67
2021/12/04 04:20:16;;;;;;;276.40;65.57;;;5.00;99.90;;;;;;5095816;28;20030;-68
2021/12/04 04:22:42;;;;;;;281.48;69.63;;;5.10;99.90;;;;;;5095430;28;20118;-67
2021/12/04 04:25:08;;;;;;;287.83;69.20;;;5.10;99.90;;;;;;5095765;28;20024;-67
2021/12/04 04:27:34;;;;;;;291.60;69.30;;;5.00;99.90;;;;;;5095430;28;20019;-67
2021/12/04 04:30:00;;;;;;;290.27;69.15;;;5.10;99.90;;;;;;5095431;28;20023;-67
2021/12/04 04:32:25;;;;;;;318.55;68.85;;;5.10;99.90;;;;;;5095307;28;20039;-67
2021/12/04 04:34:54;;;;;;;289.05;68.38;;;5.10;99.90;;;;;;5096187;28;20042;-67
2021/12/04 05:12:59;;;;;;;314.13;72.75;;;5.20;99.90;;;;;;5094905;28;20506;-68
2021/12/04 05:15:53;;;;;;;299.60;72.32;;;5.20;99.90;;;;;;5094849;28;20073;-67
2021/12/04 05:18:35;;;;;;;263.35;69.13;;;5.20;99.90;;;;;;5094607;28;20020;-68
2021/12/04 05:21:04;;;;;;;278.23;67.90;;;5.20;99.90;;;;;;5094459;28;20525;-68
2021/12/04 05:25:58;;;;;;;303.63;70.00;;;5.20;99.90;;;;;;5111847;28;20046;-68
2021/12/04 05:28:23;;;;;;;323.83;75.10;;;5.10;99.90;;;;;;5114667;28;20016;-68
2021/12/04 05:30:49;;;;;;;252.68;66.03;;;5.10;99.90;;;;;;5114897;28;20063;-68
2021/12/04 05:33:15;;;;;;;306.70;69.60;;;5.20;99.90;;;;;;5114792;28;20027;-68
2021/12/04 05:35:41;;;;;;;284.73;70.05;;;5.20;99.90;;;;;;5114568;28;20102;-68
2021/12/04 05:38:07;;;;;;;309.88;71.88;;;5.10;99.90;;;;;;5114746;28;20051;-68
2021/12/04 05:40:33;;;;;;;302.70;69.63;;;5.10;99.90;;;;;;5114400;28;20372;-68
2021/12/04 05:43:01;;;;;;;300.27;76.05;;;5.10;99.90;;;;;;5114308;28;20076;-68
2021/12/04 05:45:28;;;;;;;319.33;72.97;;;5.10;99.90;;;;;;5114417;28;20020;-68
2021/12/04 05:48:09;;;;;;;343.30;75.18;;;5.10;99.90;;;;;;5114303;28;20051;-68
2021/12/04 05:55:40;;;;;;;323.10;70.55;;;5.10;99.90;;;;;;5114502;28;20035;-68
2021/12/04 05:58:06;;;;;;;320.45;72.95;;;5.10;99.90;;;;;;5114194;28;20031;-68
2021/12/04 06:00:32;;;;;;;315.00;72.50;;;5.10;99.90;;;;;;5114206;28;20406;-68
2021/12/04 06:02:57;;;;;;;275.98;64.15;;;5.10;99.90;;;;;;5113981;28;20028;-68
2021/12/04 06:05:23;;;;;;;340.73;73.22;;;5.10;99.90;;;;;;5114309;28;20031;-68
2021/12/04 06:07:48;;;;;;;312.02;69.90;;;5.10;99.90;;;;;;5114005;28;20023;-68
2021/12/04 06:10:14;;;;;;;291.83;68.03;;;5.10;99.90;;;;;;5113311;28;20427;-68
2021/12/04 06:12:39;;;;;;;302.92;67.72;;;5.10;99.90;;;;;;5113861;28;20028;-68
2021/12/04 06:15:06;;;;;;;324.25;67.85;;;5.10;99.90;;;;;;5113884;28;20111;-68
2021/12/04 06:17:31;;;;;;;315.00;67.72;;;5.00;99.90;;;;;;5113865;28;20026;-68
2021/12/04 06:22:42;;;;;;;326.67;67.80;;;5.10;99.90;;;;;;5114157;28;20034;-68
2021/12/04 06:25:16;;;;;;;277.15;61.60;;;5.10;99.90;;;;;;5113747;28;20035;-68
2021/12/04 06:27:43;;;;;;;240.65;57.50;;;5.10;99.90;;;;;;5113775;28;20023;-68
2021/12/04 06:30:13;;;;;;;296.40;65.78;;;5.10;99.90;;;;;;5113743;28;20027;-68
2021/12/04 06:32:39;;;;;;;281.50;64.80;;;5.00;99.90;;;;;;5113917;28;20424;-68
2021/12/04 06:35:07;;;;;;;298.73;64.10;;;5.10;99.90;;;;;;5113715;28;20015;-68
2021/12/04 06:37:33;;;;;;;266.83;64.00;;;5.00;99.90;;;;;;5113906;28;20072;-68
2021/12/04 06:40:00;;;;;;;276.52;65.40;;;5.00;99.90;;;;;;5114175;28;20405;-68
2021/12/04 06:42:25;;;;;;;271.70;62.08;;;5.00;99.90;;;;;;5113488;28;20053;-68
2021/12/04 06:44:54;;;;;;;262.80;61.28;;;5.00;99.90;;;;;;5113565;28;20102;-68
2021/12/04 06:47:20;;;;;;;245.95;59.08;;;5.00;99.90;;;;;;5113528;28;20016;-68
2021/12/04 06:49:46;;;;;;;308.05;64.70;;;5.00;99.90;;;;;;5113526;28;20026;-68
2021/12/04 06:52:17;;;;;;;289.77;63.33;;;5.00;99.90;;;;;;5113418;28;20035;-68
2021/12/04 06:54:53;;;;;;;323.65;66.55;;;5.00;99.90;;;;;;5113570;28;20031;-68
2021/12/04 06:57:19;;;;;;;270.88;61.70;;;5.00;99.90;;;;;;5113481;28;20073;-68
2021/12/04 06:59:46;;;;;;;289.58;64.07;;;5.00;99.90;;;;;;5113440;28;20486;-68
2021/12/04 07:02:13;;;;;;;292.80;63.00;;;5.00;99.90;;;;;;5113268;28;20447;-68
2021/12/04 07:04:39;;;;;;;302.15;64.63;;;5.00;99.90;;;;;;5113966;28;20044;-68
2021/12/04 07:07:06;;;;;;;304.13;63.10;;;5.00;99.90;;;;;;5113371;28;20063;-68
2021/12/04 07:09:32;;;;;;;300.00;64.45;;;5.00;99.90;;;;;;5112040;28;20019;-68
2021/12/04 07:11:59;;;;;;;328.00;65.80;;;5.00;99.90;;;;;;5113275;28;20059;-68
2021/12/04 07:14:29;;;;;;;313.25;62.55;;;4.90;99.90;;;;;;5112009;28;20024;-68
2021/12/04 07:16:56;;;;;;;286.52;60.95;;;5.00;99.90;;;;;;5113241;28;20028;-68
2021/12/04 07:19:22;;;;;;;252.48;59.30;;;4.90;99.90;;;;;;5113226;28;20107;-68
2021/12/04 07:21:48;;;;;;;263.40;57.78;;;4.90;99.90;;;;;;5116341;28;20019;-68
2021/12/04 07:24:15;;;;;;;250.20;54.78;;;5.00;99.90;;;;;;5116972;28;20036;-68
2021/12/04 07:26:41;;;;;;;263.23;57.70;;;5.00;99.90;;;;;;5117321;28;20471;-68
2021/12/04 07:29:07;;;;;;;259.60;58.38;;;5.00;99.90;;;;;;5117032;28;20052;-68
2021/12/04 07:31:33;;;;;;;250.48;55.00;;;5.00;99.90;;;;;;5117113;28;20031;-68
2021/12/04 07:34:00;;;;;;;243.98;49.67;;;4.90;99.90;;;;;;5116935;28;20028;-68
2021/12/04 07:36:26;;;;;;;220.68;51.10;;;4.90;99.90;;;;;;5116875;28;20170;-68
2021/12/04 07:38:53;;;;;;;248.02;51.40;;;4.90;99.90;;;;;;5116824;28;20100;-68
2021/12/04 07:41:19;;;;;;;206.30;50.10;;;4.90;99.90;;;;;;5117003;28;20102;-68
2021/12/04 07:43:45;;;;;;;205.45;46.63;;;4.90;99.90;;;;;;5116683;28;20170;-68
2021/12/04 07:46:11;;;;;;;188.90;44.63;;;4.90;99.90;;;;;;5116706;28;20099;-68
2021/12/04 07:48:38;;;;;;;189.25;42.75;;;4.80;99.90;;;;;;5116929;28;20019;-68
2021/12/04 07:51:04;;;;;;;169.23;43.47;;;4.80;99.90;;;;;;5116595;28;20027;-68
2021/12/04 07:53:31;;;;;;;208.13;47.03;;;4.80;99.90;;;;;;5116481;28;20020;-68
2021/12/04 07:55:57;;;;;;;175.73;43.38;;;4.80;99.90;;;;;;5116803;28;20016;-68
2021/12/04 07:58:22;;;;;;;199.73;44.22;;;4.80;99.90;;;;;;5116753;28;20360;-68
2021/12/04 08:00:48;;;;;;;178.05;43.90;;;4.80;99.90;;;;;;5116895;28;20038;-68
2021/12/04 08:03:14;;;;;;;180.88;42.13;;;4.80;99.90;;;;;;5116267;28;20024;-68
2021/12/04 08:05:40;;;;;;;190.90;46.50;;;4.80;99.90;;;;;;5116309;28;20020;-68
2021/12/04 08:08:06;;;;;;;187.85;42.40;;;4.80;99.90;;;;;;5116565;28;20367;-68
2021/12/04 08:10:33;;;;;;;174.63;41.60;;;4.80;99.90;;;;;;5116761;28;20031;-68
2021/12/04 08:13:01;;;;;;;196.38;43.75;;;4.80;99.90;;;;;;5116179;28;20027;-68
2021/12/04 08:15:27;;;;;;;173.45;41.13;;;4.80;99.90;;;;;;5116713;28;20059;-68
2021/12/04 08:17:52;;;;;;;154.60;40.97;;;4.80;99.90;;;;;;5116401;28;20063;-68
2021/12/04 08:20:18;;;;;;;153.38;39.13;;;4.80;99.90;;;;;;5115951;28;20050;-68
2021/12/04 08:22:44;;;;;;;144.70;36.83;;;4.80;99.90;;;;;;5115966;28;20050;-68
2021/12/04 08:25:12;;;;;;;159.63;38.53;;;4.80;99.90;;;;;;5115919;28;20122;-68
2021/12/04 08:27:39;;;;;;;138.05;35.92;;;4.80;99.90;;;;;;5116193;28;20024;-68
2021/12/04 08:30:07;;;;;;;141.60;36.50;;;4.80;99.90;;;;;;5115905;28;20047;-68
2021/12/04 08:32:33;;;;;;;115.43;33.17;;;4.80;99.90;;;;;;5115105;28;20020;-68
2021/12/04 08:34:59;;;;;;;121.88;32.35;;;4.80;99.90;;;;;;5116048;28;20538;-68
2021/12/04 08:37:25;;;;;;;140.70;33.60;;;4.70;99.90;;;;;;5116226;28;20026;-68
2021/12/04 08:39:51;;;;;;;111.35;31.30;;;4.70;99.90;;;;;;5115698;28;20368;-68
2021/12/04 08:42:19;;;;;;;121.97;33.17;;;4.80;99.90;;;;;;5115468;28;20031;-68
2021/12/04 08:44:44;;;;;;;105.88;30.30;;;4.70;99.90;;;;;;5115518;28;20073;-68
2021/12/04 08:47:10;;;;;;;111.15;31.95;;;4.70;99.90;;;;;;5114225;28;20027;-68
2021/12/04 08:49:36;;;;;;;123.38;32.40;;;4.70;99.90;;;;;;5104758;28;20031;-68
2021/12/04 08:52:04;;;;;;;99.53;31.38;;;4.70;99.90;;;;;;5099934;27;20035;-68
2021/12/04 08:54:31;;;;;;;126.32;32.78;;;4.70;99.90;;;;;;5114524;28;20059;-68
2021/12/04 08:56:57;;;;;;;109.85;30.55;;;4.70;99.90;;;;;;5114374;28;20110;-68
2021/12/04 08:59:22;;;;;;;133.07;33.00;;;4.70;99.90;;;;;;5112544;28;20062;-69
2021/12/04 09:01:48;;;;;;;148.00;36.35;;;4.70;99.90;;;;;;5114973;28;20039;-68
2021/12/04 09:04:23;;;;;;;123.75;35.20;;;4.60;99.90;;;;;;5107834;28;20055;-68
2021/12/04 09:06:50;;;;;;;105.82;32.20;;;4.70;99.90;;;;;;5099759;28;20050;-68
2021/12/04 09:09:17;;;;;;;107.05;31.70;;;4.70;99.90;;;;;;5106005;28;20107;-69
2021/12/04 09:11:49;;;;;;;135.38;33.70;;;4.60;99.90;;;;;;5094046;28;20024;-68
2021/12/04 09:14:17;;;;;;;130.48;35.45;;;4.70;99.90;;;;;;5094477;28;20083;-68
2021/12/04 09:16:43;;;;;;;133.50;35.90;;;4.70;99.90;;;;;;5094374;28;20126;-68
2021/12/04 09:19:08;;;;;;;115.55;32.58;;;4.70;99.90;;;;;;5094659;28;20089;-68
2021/12/04 09:21:37;;;;;;;106.22;31.40;;;4.70;99.90;;;;;;5093767;28;20435;-68
2021/12/04 09:24:07;;;;;;;117.82;30.80;;;4.70;99.90;;;;;;5094298;28;20060;-68
2021/12/04 09:29:27;;;;;;;134.05;36.65;;;4.70;99.90;;;;;;5094579;28;20028;-68
2021/12/04 09:34:52;;;;;;;115.00;31.08;;;4.60;99.90;;;;;;5094564;28;20407;-68
2021/12/04 09:59:44;;;;;;;121.85;35.85;;;4.50;99.90;;;;;;5094370;28;20119;-70
2021/12/04 10:18:56;;;;;;;124.78;33.22;;;4.50;99.90;;;;;;5084983;28;20044;-70
2021/12/04 10:24:26;;;;;;;112.60;33.47;;;4.40;99.90;;;;;;5093026;28;20479;-70
2021/12/04 10:35:00;;;;;;;136.73;35.53;;;4.50;99.90;;;;;;5099566;28;20157;-70
2021/12/04 10:37:29;;;;;;;127.18;33.90;;;4.40;99.90;;;;;;5093300;28;20099;-70
2021/12/04 10:40:03;;;;;;;127.30;36.83;;;4.50;99.90;;;;;;5100238;28;20481;-70
2021/12/04 10:42:51;;;;;;;141.93;35.90;;;4.50;99.90;;;;;;5113644;28;20030;-70
2021/12/04 10:45:17;;;;;;;119.15;32.60;;;4.50;99.90;;;;;;5113499;28;20019;-70
2021/12/04 10:47:58;;;;;;;107.43;31.98;;;4.40;99.90;;;;;;5092925;28;20136;-69
2021/12/04 10:53:30;;;;;;;153.98;45.15;;;4.40;99.90;;;;;;5069840;28;20499;-70
2021/12/04 10:59:17;;;;;;;156.95;38.63;;;4.50;99.90;;;;;;5075861;28;20043;-70
2021/12/04 11:04:36;;;;;;;133.68;37.70;;;4.40;99.90;;;;;;5096913;28;20479;-70
2021/12/04 11:26:52;;;;;;;120.07;39.03;;;4.30;99.90;;;;;;5056418;28;20058;-70
2021/12/04 11:38:26;;;;;;;132.35;39.22;;;4.30;99.90;;;;;;5056489;28;20037;-70
2021/12/04 11:43:17;;;;;;;135.05;37.08;;;4.40;99.90;;;;;;5056148;28;20059;-70
2021/12/04 11:45:59;;;;;;;118.70;35.75;;;4.40;99.90;;;;;;5056388;28;20021;-70
2021/12/04 11:48:31;;;;;;;89.22;28.50;;;4.40;99.90;;;;;;5055295;28;20445;-70
2021/12/04 11:50:56;;;;;;;86.07;27.20;;;4.40;99.90;;;;;;5045100;28;20100;-74
2021/12/04 11:53:22;;;;;;;98.75;29.60;;;4.50;99.90;;;;;;5044270;28;20196;-73
2021/12/04 11:55:51;;;;;;;99.15;27.50;;;4.50;99.90;;;;;;5042786;28;20037;-74
2021/12/04 11:58:24;;;;;;;82.95;25.95;;;4.50;99.90;;;;;;5044824;28;20362;-74
2021/12/04 12:00:54;;;;;;;103.95;28.35;;;4.40;99.90;;;;;;5047084;28;20403;-74
2021/12/04 12:03:23;;;;;;;91.85;25.55;;;4.40;99.90;;;;;;5044673;28;20502;-74
2021/12/04 12:05:53;;;;;;;89.60;27.58;;;4.40;99.90;;;;;;5052564;28;20053;-74
2021/12/04 12:08:34;;;;;;;100.93;27.30;;;4.50;99.90;;;;;;5043019;28;20083;-76
2021/12/04 12:11:02;;;;;;;87.97;24.60;;;4.50;99.90;;;;;;5041707;28;20034;-75
2021/12/04 12:13:41;;;;;;;78.20;24.85;;;4.50;99.90;;;;;;5045160;28;20035;-74
2021/12/04 12:16:21;;;;;;;75.68;23.45;;;4.40;99.90;;;;;;5044546;28;20507;-74
2021/12/04 12:18:57;;;;;;;69.13;21.98;;;4.40;99.90;;;;;;5045565;28;20036;-75
2021/12/04 12:21:30;;;;;;;70.95;24.40;;;4.30;99.90;;;;;;5043059;28;20053;-75
2021/12/04 12:33:02;;;;;;;79.88;24.75;;;4.30;99.90;;;;;;5039519;28;20107;-75
2021/12/04 12:38:53;;;;;;;81.55;25.52;;;4.30;99.90;;;;;;5041313;28;20588;-76
2021/12/04 12:41:30;;;;;;;88.47;24.83;;;4.30;99.90;;;;;;5041194;28;20033;-75
2021/12/04 12:44:09;;;;;;;90.55;27.13;;;4.30;99.90;;;;;;5041548;28;20046;-76
2021/12/04 12:46:46;;;;;;;97.13;26.48;;;4.20;99.90;;;;;;5042666;28;20079;-76
2021/12/04 12:49:25;;;;;;;91.63;27.58;;;4.20;99.90;;;;;;5043736;28;20029;-76
2021/12/04 12:52:13;;;;;;;95.25;27.27;;;4.20;99.90;;;;;;5045083;28;20559;-75
2021/12/04 12:54:41;;;;;;;73.25;24.92;;;4.20;99.90;;;;;;5042949;28;20131;-76
2021/12/04 12:57:22;;;;;;;96.40;25.65;;;4.20;99.90;;;;;;5047703;28;20040;-75
2021/12/04 13:14:11;;;;;;;92.40;27.40;;;4.20;99.90;;;;;;5034741;28;20032;-70
2021/12/04 13:16:38;;;;;;;87.60;26.17;;;4.20;99.90;;;;;;5034642;28;20025;-70
2021/12/04 13:19:08;;;;;;;92.15;28.98;;;4.10;99.90;;;;;;5033603;28;20025;-70
2021/12/04 13:21:38;;;;;;;101.80;28.02;;;4.20;99.90;;;;;;5034456;28;20036;-70
2021/12/04 13:24:10;;;;;;;89.88;26.83;;;4.20;99.90;;;;;;5034121;28;20051;-70
2021/12/04 13:26:38;;;;;;;111.75;31.45;;;4.20;99.90;;;;;;5034193;28;20053;-71
2021/12/04 13:29:05;;;;;;;102.82;31.73;;;4.20;99.90;;;;;;5034319;28;20535;-71
2021/12/04 13:31:37;;;;;;;108.78;32.15;;;4.20;99.90;;;;;;5037834;28;20440;-72
2021/12/04 13:34:03;;;;;;;108.88;32.70;;;4.20;99.90;;;;;;5034000;28;20109;-70
2021/12/04 13:36:31;;;;;;;117.25;34.53;;;4.20;99.90;;;;;;5033987;28;20052;-71
2021/12/04 13:39:01;;;;;;;117.75;33.85;;;4.30;99.90;;;;;;5034232;28;20021;-70
2021/12/04 13:41:28;;;;;;;103.13;34.25;;;4.30;99.90;;;;;;5033892;28;20025;-70
2021/12/04 13:43:55;;;;;;;116.28;35.33;;;4.30;99.90;;;;;;5033365;28;20028;-71
2021/12/04 13:46:23;;;;;;;123.32;37.22;;;4.30;99.90;;;;;;5033828;28;20071;-70
2021/12/04 13:48:49;;;;;;;107.60;32.42;;;4.30;99.90;;;;;;5034079;28;20109;-70
2021/12/04 13:51:14;;;;;;;119.60;34.13;;;4.30;99.90;;;;;;5033309;28;20496;-71
2021/12/04 13:53:43;;;;;;;112.05;32.92;;;4.30;99.90;;;;;;5033691;28;20392;-70
2021/12/04 13:56:12;;;;;;;118.15;34.03;;;4.30;99.90;;;;;;5033638;28;20553;-70
2021/12/04 13:58:57;;;;;;;112.70;31.60;;;4.30;99.90;;;;;;5033957;28;20029;-70
2021/12/04 14:01:24;;;;;;;109.45;33.13;;;4.30;99.90;;;;;;5033239;28;20025;-70
2021/12/04 14:03:54;;;;;;;107.22;32.15;;;4.30;99.90;;;;;;5032935;28;20025;-70
2021/12/04 14:06:20;;;;;;;92.82;28.77;;;4.30;99.90;;;;;;5033874;28;20057;-70
2021/12/04 14:09:00;;;;;;;98.45;32.50;;;4.30;99.90;;;;;;5033478;28;20061;-70
2021/12/04 14:11:32;;;;;;;103.97;35.58;;;4.30;99.90;;;;;;5032290;28;20021;-70
2021/12/04 14:13:58;;;;;;;121.95;33.88;;;4.30;99.90;;;;;;5033371;28;20484;-70
2021/12/04 14:16:25;;;;;;;110.82;33.67;;;4.30;99.90;;;;;;5033653;28;20032;-70
2021/12/04 14:18:52;;;;;;;110.28;32.50;;;4.30;99.90;;;;;;5032808;28;20477;-70
2021/12/04 14:21:17;;;;;;;100.57;33.03;;;4.40;99.90;;;;;;5033399;28;20029;-70
2021/12/04 14:23:47;;;;;;;105.00;32.47;;;4.30;99.90;;;;;;5033041;28;20092;-70
2021/12/04 14:26:15;;;;;;;95.82;30.02;;;4.40;99.90;;;;;;5036834;28;20029;-70
2021/12/04 14:28:44;;;;;;;102.72;34.75;;;4.30;99.90;;;;;;5052554;28;20029;-70
2021/12/04 14:31:12;;;;;;;96.43;33.13;;;4.30;99.90;;;;;;5052120;28;20399;-70
2021/12/04 14:33:39;;;;;;;103.75;33.95;;;4.30;99.90;;;;;;5053061;28;20477;-70
2021/12/04 14:36:06;;;;;;;104.47;33.10;;;4.30;99.90;;;;;;5053043;28;20031;-70
2021/12/04 14:38:32;;;;;;;104.20;34.10;;;4.30;99.90;;;;;;5053061;28;20064;-70
2021/12/04 14:41:06;;;;;;;104.38;31.98;;;4.30;99.90;;;;;;5052565;28;20469;-70
2021/12/04 14:43:36;;;;;;;113.53;34.55;;;4.30;99.90;;;;;;5053553;28;20496;-70
2021/12/04 14:46:05;;;;;;;116.88;34.15;;;4.30;99.90;;;;;;5052963;28;20032;-72
2021/12/04 14:48:45;;;;;;;117.50;34.35;;;4.30;99.90;;;;;;5052945;28;20104;-70
2021/12/04 14:51:16;;;;;;;122.30;35.83;;;4.30;99.90;;;;;;5052910;28;20033;-70
2021/12/04 14:53:51;;;;;;;115.18;37.92;;;4.30;99.90;;;;;;5053169;28;20025;-70
2021/12/04 14:56:19;;;;;;;124.65;37.97;;;4.20;99.90;;;;;;5052395;28;20392;-70
2021/12/04 14:58:45;;;;;;;115.40;36.20;;;4.20;99.90;;;;;;5052780;28;20025;-70
2021/12/04 15:01:13;;;;;;;131.95;38.85;;;4.30;99.90;;;;;;5049237;28;20034;-70
2021/12/04 15:03:46;;;;;;;133.07;37.78;;;4.20;99.90;;;;;;5052185;28;20017;-70
2021/12/04 15:06:16;;;;;;;137.32;38.60;;;4.20;99.90;;;;;;5039066;28;20014;-70
2021/12/04 15:08:48;;;;;;;126.72;39.17;;;4.30;99.90;;;;;;5032899;28;20104;-70
2021/12/04 15:11:19;;;;;;;132.80;38.60;;;4.20;99.90;;;;;;5032691;28;20029;-71
2021/12/04 15:14:32;;;;;;;116.68;35.97;;;4.20;99.90;;;;;;5031423;28;20037;-70
2021/12/04 15:17:05;;;;;;;123.68;36.58;;;4.30;99.90;;;;;;5036028;28;20438;-71
2021/12/04 15:19:44;;;;;;;110.82;36.08;;;4.30;99.90;;;;;;5051489;28;20025;-71
2021/12/04 15:22:29;;;;;;;130.25;38.42;;;4.30;99.90;;;;;;5051095;28;20033;-71
2021/12/04 15:24:56;;;;;;;130.90;37.47;;;4.20;99.90;;;;;;5052972;28;20017;-71
2021/12/04 15:27:23;;;;;;;121.35;37.05;;;4.20;99.90;;;;;;5051152;28;20028;-71
2021/12/04 15:29:53;;;;;;;137.95;37.80;;;4.20;99.90;;;;;;5052563;28;20131;-70
2021/12/04 15:32:25;;;;;;;136.07;37.22;;;4.20;99.90;;;;;;5044578;28;20022;-74
2021/12/04 15:35:06;;;;;;;126.32;38.28;;;4.20;99.90;;;;;;5032968;28;20028;-74
2021/12/04 15:37:47;;;;;;;109.65;35.25;;;4.20;99.90;;;;;;5033352;28;20510;-75
2021/12/04 15:40:32;;;;;;;132.98;39.80;;;4.20;99.90;;;;;;5032903;28;20451;-74
2021/12/04 15:43:20;;;;;;;140.48;39.63;;;4.20;99.90;;;;;;5038066;28;20032;-75
2021/12/04 15:46:03;;;;;;;136.63;40.72;;;4.20;99.90;;;;;;5036214;28;20022;-74
2021/12/04 15:49:44;;;;;;;120.35;36.28;;;4.20;99.90;;;;;;5034325;28;20025;-74
2021/12/04 15:52:44;;;;;;;135.82;37.65;;;4.20;99.90;;;;;;5026940;28;20060;-74
2021/12/04 15:54:23;;;;;;;137.30;38.05;;;4.20;99.90;;;;;;5035839;28;20105;-74